createdAt,value
2022-08-22T00:01:07.646Z,23.59
2022-08-22T00:02:43.289Z,25.01
2022-08-22T00:02:49.565Z,24.53
2022-08-22T00:03:01.247Z,25.99
2022-08-22T00:04:23.745Z,23.49
2022-08-22T00:07:24.511Z,23.49
2022-08-22T00:09:52.237Z,23.39
2022-08-22T00:12:29.465Z,23.42
2022-08-22T00:15:42.300Z,23.55
2022-08-22T00:18:42.785Z,23.43
2022-08-22T00:21:33.011Z,23.50
2022-08-22T00:24:39.545Z,23.48
2022-08-22T00:27:32.536Z,23.42
2022-08-22T00:30:15.739Z,23.44
2022-08-22T00:32:49.522Z,23.49
2022-08-22T00:35:45.170Z,23.37
2022-08-22T00:38:23.858Z,23.36
2022-08-22T00:41:04.163Z,23.36
2022-08-22T00:43:33.824Z,23.36
2022-08-22T00:46:34.240Z,23.39
2022-08-22T00:49:40.982Z,23.27
2022-08-22T00:52:25.706Z,23.33
2022-08-22T00:55:13.657Z,23.37
2022-08-22T00:58:16.525Z,23.34
2022-08-22T01:00:53.152Z,23.26
2022-08-22T01:03:44.139Z,23.32
2022-08-22T01:06:53.114Z,23.22
2022-08-22T01:09:34.527Z,23.09
2022-08-22T01:12:48.486Z,23.04
2022-08-22T01:15:25.691Z,23.04
2022-08-22T01:18:21.693Z,23.03
2022-08-22T01:21:12.833Z,23.11
2022-08-22T01:24:25.091Z,23.02
2022-08-22T01:27:12.124Z,23.07
2022-08-22T01:30:09.667Z,22.99
2022-08-22T01:33:24.280Z,22.99
2022-08-22T01:36:18.433Z,23.01
2022-08-22T01:39:14.936Z,23.01
2022-08-22T01:42:03.005Z,22.94
2022-08-22T01:45:15.421Z,22.95
2022-08-22T01:48:03.923Z,22.90
2022-08-22T01:50:58.536Z,22.90
2022-08-22T01:53:43.930Z,22.86
2022-08-22T01:56:22.955Z,22.83
2022-08-22T01:59:12.453Z,22.81
2022-08-22T02:02:16.698Z,22.79
2022-08-22T02:05:10.259Z,22.85
2022-08-22T02:08:12.874Z,22.95
2022-08-22T02:11:10.740Z,22.75
2022-08-22T02:14:05.262Z,22.86
2022-08-22T02:16:52.731Z,22.81
2022-08-22T02:19:51.447Z,22.68
2022-08-22T02:22:37.846Z,22.67
2022-08-22T02:26:02.273Z,22.49
2022-08-22T02:29:10.149Z,22.54
2022-08-22T02:31:45.007Z,22.53
2022-08-22T02:34:26.797Z,22.57
2022-08-22T02:37:05.842Z,22.66
2022-08-22T02:39:39.378Z,22.70
2022-08-22T02:42:26.721Z,22.61
2022-08-22T02:45:20.078Z,22.59
2022-08-22T02:48:17.880Z,22.61
2022-08-22T02:50:59.708Z,22.63
2022-08-22T02:53:48.492Z,22.54
2022-08-22T02:56:25.308Z,22.49
2022-08-22T02:59:19.447Z,22.42
2022-08-22T03:01:47.351Z,22.42
2022-08-22T03:04:32.570Z,22.23
2022-08-22T03:07:19.947Z,22.23
2022-08-22T03:09:58.224Z,22.17
2022-08-22T03:12:56.990Z,22.16
2022-08-22T03:15:52.122Z,22.21
2022-08-22T03:18:48.501Z,22.11
2022-08-22T03:21:45.839Z,21.98
2022-08-22T03:24:51.398Z,22.02
2022-08-22T03:27:41.608Z,21.98
2022-08-22T03:30:38.372Z,21.90
2022-08-22T03:33:25.215Z,21.86
2022-08-22T03:36:19.367Z,21.88
2022-08-22T03:39:19.189Z,21.78
2022-08-22T03:42:17.942Z,21.75
2022-08-22T03:45:15.637Z,21.72
2022-08-22T03:48:13.345Z,21.72
2022-08-22T03:50:55.014Z,21.73
2022-08-22T03:53:49.695Z,21.54
2022-08-22T03:56:54.276Z,21.46
2022-08-22T03:59:50.230Z,21.55
2022-08-22T04:02:48.687Z,21.52
2022-08-22T04:05:44.028Z,21.46
2022-08-22T04:08:26.289Z,21.39
2022-08-22T04:11:17.373Z,21.28
2022-08-22T04:14:35.983Z,21.28
2022-08-22T04:17:55.542Z,21.23
2022-08-22T04:21:01.655Z,21.15
2022-08-22T04:24:11.046Z,21.21
2022-08-22T04:26:49.873Z,21.23
2022-08-22T04:29:28.540Z,21.24
2022-08-22T04:32:39.303Z,21.22
2022-08-22T04:35:13.739Z,21.18
2022-08-22T04:37:49.232Z,21.19
2022-08-22T04:40:34.944Z,21.24
2022-08-22T04:43:16.176Z,21.26
2022-08-22T04:45:59.886Z,21.35
2022-08-22T04:48:31.864Z,21.28
2022-08-22T04:51:13.084Z,21.33
2022-08-22T04:53:48.808Z,21.37
2022-08-22T04:57:05.732Z,21.53
2022-08-22T04:59:33.678Z,21.76
2022-08-22T05:02:06.566Z,21.90
2022-08-22T05:04:43.742Z,22.16
2022-08-22T05:07:26.112Z,22.31
2022-08-22T05:10:11.775Z,22.42
2022-08-22T05:12:45.331Z,22.71
2022-08-22T05:15:51.300Z,23.02
2022-08-22T05:18:29.960Z,23.22
2022-08-22T05:21:02.290Z,23.44
2022-08-22T05:23:43.144Z,23.83
2022-08-22T05:26:13.925Z,24.06
2022-08-22T05:28:53.119Z,24.36
2022-08-22T05:31:40.730Z,24.75
2022-08-22T05:34:24.812Z,25.12
2022-08-22T05:37:08.280Z,25.51
2022-08-22T05:39:37.912Z,25.65
2022-08-22T05:42:12.708Z,25.96
2022-08-22T05:44:39.825Z,26.57
2022-08-22T05:47:27.610Z,27.29
2022-08-22T05:50:19.549Z,27.82
2022-08-22T05:53:27.162Z,28.21
2022-08-22T05:56:44.083Z,28.93
2022-08-22T05:59:32.977Z,29.15
2022-08-22T06:02:25.031Z,29.64
2022-08-22T06:04:58.973Z,30.18
2022-08-22T06:07:35.930Z,30.86
2022-08-22T06:10:21.551Z,31.16
2022-08-22T06:13:15.829Z,31.34
2022-08-22T06:16:05.839Z,31.93
2022-08-22T06:18:35.226Z,32.52
2022-08-22T06:21:12.782Z,33.55
2022-08-22T06:23:56.717Z,34.37
2022-08-22T06:26:29.072Z,35.02
2022-08-22T06:28:59.800Z,35.98
2022-08-22T06:31:32.973Z,36.52
2022-08-22T06:34:24.750Z,37.00
2022-08-22T06:36:53.386Z,37.37
2022-08-22T06:39:34.807Z,37.95
2022-08-22T06:42:16.278Z,39.19
2022-08-22T06:44:57.815Z,40.19
2022-08-22T06:47:33.234Z,41.07
2022-08-22T06:50:07.584Z,41.93
2022-08-22T06:53:05.665Z,43.15
2022-08-22T06:55:35.040Z,43.78
2022-08-22T06:58:13.083Z,44.55
2022-08-22T07:00:43.349Z,45.34
2022-08-22T07:03:20.340Z,45.79
2022-08-22T07:05:47.466Z,46.08
2022-08-22T07:08:20.766Z,46.46
2022-08-22T07:11:28.896Z,46.76
2022-08-22T07:14:02.357Z,46.81
2022-08-22T07:16:52.066Z,46.79
2022-08-22T07:19:38.644Z,46.23
2022-08-22T07:22:27.135Z,45.96
2022-08-22T07:25:14.838Z,45.43
2022-08-22T07:28:16.160Z,44.29
2022-08-22T07:31:01.556Z,43.15
2022-08-22T07:33:45.553Z,43.11
2022-08-22T07:36:31.786Z,42.57
2022-08-22T07:39:34.734Z,41.89
2022-08-22T07:42:33.036Z,40.66
2022-08-22T07:45:13.831Z,39.72
2022-08-22T07:48:08.556Z,39.97
2022-08-22T07:51:01.463Z,41.07
2022-08-22T07:54:01.997Z,40.45
2022-08-22T07:56:42.234Z,38.91
2022-08-22T07:59:19.170Z,38.22
2022-08-22T08:01:50.584Z,38.89
2022-08-22T08:04:26.305Z,38.56
2022-08-22T08:06:58.390Z,38.08
2022-08-22T08:09:32.936Z,38.48
2022-08-22T08:12:02.800Z,38.06
2022-08-22T08:14:30.914Z,37.22
2022-08-22T08:17:06.003Z,38.00
2022-08-22T08:19:41.058Z,38.50
2022-08-22T08:22:16.053Z,40.76
2022-08-22T08:24:45.127Z,43.35
2022-08-22T08:27:36.448Z,45.67
2022-08-22T08:30:15.628Z,47.09
2022-08-22T08:32:57.598Z,47.95
2022-08-22T08:36:02.418Z,49.14
2022-08-22T08:38:38.054Z,48.79
2022-08-22T08:41:42.508Z,49.03
2022-08-22T08:44:41.240Z,47.69
2022-08-22T08:47:46.441Z,48.02
2022-08-22T08:50:35.516Z,50.21
2022-08-22T08:53:38.907Z,51.71
2022-08-22T08:56:40.387Z,53.32
2022-08-22T08:59:56.828Z,54.44
2022-08-22T09:02:33.110Z,54.97
2022-08-22T09:05:12.545Z,55.36
2022-08-22T09:07:51.352Z,56.13
2022-08-22T09:10:53.089Z,54.56
2022-08-22T09:13:54.005Z,54.42
2022-08-22T09:16:58.473Z,55.02
2022-08-22T09:20:17.808Z,55.41
2022-08-22T09:23:20.080Z,56.35
2022-08-22T09:26:05.737Z,55.32
2022-08-22T09:28:55.639Z,51.68
2022-08-22T09:32:16.954Z,52.67
2022-08-22T09:35:28.591Z,54.21
2022-08-22T09:38:08.025Z,54.61
2022-08-22T09:40:50.221Z,56.68
2022-08-22T09:43:28.212Z,57.64
2022-08-22T09:46:32.280Z,57.53
2022-08-22T09:49:14.320Z,57.54
2022-08-22T09:52:33.239Z,57.78
2022-08-22T09:55:39.974Z,58.55
2022-08-22T09:58:51.418Z,58.37
2022-08-22T10:02:15.726Z,58.56
2022-08-22T10:05:07.074Z,58.25
2022-08-22T10:08:07.183Z,57.55
2022-08-22T10:11:12.705Z,57.90
2022-08-22T10:13:58.888Z,57.35
2022-08-22T10:16:59.805Z,56.11
2022-08-22T10:19:41.423Z,55.09
2022-08-22T10:22:22.898Z,54.61
2022-08-22T10:24:55.507Z,53.30
2022-08-22T10:27:53.265Z,51.44
2022-08-22T10:30:47.111Z,48.97
2022-08-22T10:33:33.756Z,46.75
2022-08-22T10:36:13.314Z,44.45
2022-08-22T10:38:58.254Z,42.09
2022-08-22T10:41:38.535Z,40.23
2022-08-22T10:44:35.660Z,38.70
2022-08-22T10:47:12.326Z,37.63
2022-08-22T10:49:55.037Z,36.79
2022-08-22T10:52:33.093Z,36.04
2022-08-22T10:55:09.993Z,35.83
2022-08-22T10:58:00.359Z,35.70
2022-08-22T11:00:54.164Z,35.41
2022-08-22T11:03:57.855Z,35.08
2022-08-22T11:06:36.902Z,34.63
2022-08-22T11:09:37.113Z,34.37
2022-08-22T11:12:37.277Z,34.00
2022-08-22T11:15:49.584Z,33.58
2022-08-22T11:19:15.144Z,32.66
2022-08-22T11:22:20.848Z,32.17
2022-08-22T11:25:26.888Z,32.18
2022-08-22T11:28:31.022Z,32.32
2022-08-22T11:31:23.954Z,32.17
2022-08-22T11:34:14.915Z,32.27
2022-08-22T11:37:11.560Z,32.21
2022-08-22T11:40:06.522Z,32.17
2022-08-22T11:43:22.219Z,32.00
2022-08-22T11:45:56.432Z,32.11
2022-08-22T11:48:41.093Z,32.17
2022-08-22T11:51:43.426Z,32.13
2022-08-22T11:54:25.868Z,31.95
2022-08-22T11:57:21.808Z,31.91
2022-08-22T12:00:13.056Z,32.01
2022-08-22T12:03:17.850Z,31.89
2022-08-22T12:06:06.124Z,31.95
2022-08-22T12:08:35.299Z,31.97
2022-08-22T12:11:08.952Z,31.96
2022-08-22T12:14:03.964Z,32.05
2022-08-22T12:17:18.935Z,31.79
2022-08-22T12:20:37.382Z,31.38
2022-08-22T12:23:55.586Z,30.97
2022-08-22T12:27:02.405Z,31.31
2022-08-22T12:29:45.484Z,31.48
2022-08-22T12:32:44.074Z,31.60
2022-08-22T12:35:34.261Z,31.67
2022-08-22T12:38:54.785Z,31.73
2022-08-22T12:42:20.272Z,31.58
2022-08-22T12:45:13.170Z,31.27
2022-08-22T12:48:29.356Z,31.34
2022-08-22T12:51:27.658Z,31.39
2022-08-22T12:54:26.752Z,31.35
2022-08-22T12:57:24.305Z,31.38
2022-08-22T13:00:06.617Z,31.42
2022-08-22T13:02:36.159Z,31.49
2022-08-22T13:05:19.723Z,31.50
2022-08-22T13:08:00.269Z,31.46
2022-08-22T13:10:46.487Z,31.52
2022-08-22T13:13:42.807Z,31.60
2022-08-22T13:16:25.683Z,31.55
2022-08-22T13:18:59.169Z,31.56
2022-08-22T13:21:37.465Z,31.56
2022-08-22T13:24:16.873Z,31.58
2022-08-22T13:26:57.953Z,31.67
2022-08-22T13:29:42.916Z,31.64
2022-08-22T13:32:44.424Z,31.58
2022-08-22T13:35:33.641Z,31.50
2022-08-22T13:38:13.814Z,31.36
2022-08-22T13:40:47.649Z,31.44
2022-08-22T13:43:23.177Z,31.32
2022-08-22T13:46:06.695Z,31.09
2022-08-22T13:49:00.620Z,31.14
2022-08-22T13:51:56.353Z,31.20
2022-08-22T13:54:55.451Z,31.28
2022-08-22T13:57:37.083Z,31.25
2022-08-22T14:00:28.552Z,31.26
2022-08-22T14:03:16.216Z,31.18
2022-08-22T14:05:49.279Z,30.95
2022-08-22T14:08:34.069Z,30.86
2022-08-22T14:11:12.910Z,30.84
2022-08-22T14:14:03.775Z,31.00
2022-08-22T14:16:51.449Z,30.98
2022-08-22T14:19:53.180Z,30.72
2022-08-22T14:22:31.886Z,30.79
2022-08-22T14:25:22.317Z,30.63
2022-08-22T14:28:06.275Z,30.82
2022-08-22T14:30:54.206Z,30.75
2022-08-22T14:33:28.422Z,30.93
2022-08-22T14:36:00.379Z,30.96
2022-08-22T14:38:31.820Z,31.03
2022-08-22T14:41:52.888Z,30.73
2022-08-22T14:44:50.171Z,30.98
2022-08-22T14:48:14.233Z,30.96
2022-08-22T14:51:12.668Z,31.06
2022-08-22T14:53:40.433Z,30.93
2022-08-22T14:56:27.721Z,30.96
2022-08-22T14:59:09.008Z,30.96
2022-08-22T15:02:13.178Z,30.95
2022-08-22T15:04:47.441Z,30.95
2022-08-22T15:07:36.524Z,30.87
2022-08-22T15:10:33.343Z,30.82
2022-08-22T15:13:07.843Z,30.85
2022-08-22T15:15:52.522Z,30.89
2022-08-22T15:18:27.795Z,30.81
2022-08-22T15:21:30.138Z,30.83
2022-08-22T15:24:07.894Z,30.91
2022-08-22T15:26:50.149Z,30.86
2022-08-22T15:29:23.530Z,30.93
2022-08-22T15:31:54.079Z,31.04
2022-08-22T15:34:39.948Z,30.80
2022-08-22T15:37:19.404Z,30.89
2022-08-22T15:40:12.671Z,30.87
2022-08-22T15:42:51.003Z,30.87
2022-08-22T15:45:38.690Z,30.85
2022-08-22T15:48:25.542Z,30.86
2022-08-22T15:51:10.174Z,30.97
2022-08-22T15:54:25.189Z,30.95
2022-08-22T15:56:52.744Z,30.94
2022-08-22T15:59:48.005Z,30.94
2022-08-22T16:02:42.943Z,30.90
2022-08-22T16:05:10.498Z,30.79
2022-08-22T16:07:58.089Z,30.57
2022-08-22T16:10:25.011Z,30.39
2022-08-22T16:13:34.753Z,30.13
2022-08-22T16:16:24.946Z,30.11
2022-08-22T16:18:51.779Z,30.20
2022-08-22T16:21:22.110Z,30.16
2022-08-22T16:23:56.206Z,30.14
2022-08-22T16:26:31.690Z,30.31
2022-08-22T16:29:12.514Z,30.37
2022-08-22T16:31:44.230Z,30.39
2022-08-22T16:34:17.146Z,30.23
2022-08-22T16:37:02.855Z,30.15
2022-08-22T16:39:51.381Z,29.95
2022-08-22T16:42:23.872Z,29.91
2022-08-22T16:45:04.610Z,29.89
2022-08-22T16:48:02.140Z,29.70
2022-08-22T16:50:40.755Z,29.58
2022-08-22T16:53:29.433Z,29.55
2022-08-22T16:56:52.158Z,29.58
2022-08-22T16:59:57.403Z,29.68
2022-08-22T17:03:22.106Z,29.67
2022-08-22T17:06:28.437Z,29.49
2022-08-22T17:09:14.463Z,29.34
2022-08-22T17:12:10.671Z,29.24
2022-08-22T17:15:07.115Z,29.19
2022-08-22T17:17:52.619Z,29.20
2022-08-22T17:20:48.135Z,29.37
2022-08-22T17:23:56.211Z,29.37
2022-08-22T17:27:04.928Z,29.28
2022-08-22T17:30:34.038Z,29.13
2022-08-22T17:33:54.649Z,29.14
2022-08-22T17:37:00.759Z,29.33
2022-08-22T17:40:10.566Z,29.30
2022-08-22T17:43:05.966Z,29.22
2022-08-22T17:46:05.546Z,29.04
2022-08-22T17:48:47.891Z,29.05
2022-08-22T17:51:58.884Z,28.84
2022-08-22T17:54:33.668Z,29.05
2022-08-22T17:57:09.625Z,29.03
2022-08-22T17:59:52.530Z,28.99
2022-08-22T18:02:26.447Z,28.90
2022-08-22T18:05:11.749Z,28.89
2022-08-22T18:08:38.224Z,29.06
2022-08-22T18:11:24.881Z,28.93
2022-08-22T18:14:08.573Z,29.03
2022-08-22T18:16:48.655Z,29.06
2022-08-22T18:19:36.507Z,28.95
2022-08-22T18:22:21.360Z,28.98
2022-08-22T18:25:05.452Z,28.89
2022-08-22T18:28:15.056Z,28.70
2022-08-22T18:31:02.013Z,28.73
2022-08-22T18:33:43.874Z,28.72
2022-08-22T18:36:31.118Z,28.66
2022-08-22T18:39:04.118Z,28.60
2022-08-22T18:41:55.283Z,28.62
2022-08-22T18:44:32.724Z,28.46
2022-08-22T18:47:21.542Z,28.30
2022-08-22T18:49:54.372Z,28.19
2022-08-22T18:52:27.395Z,28.04
2022-08-22T18:55:24.631Z,28.06
2022-08-22T18:58:35.698Z,27.94
2022-08-22T19:01:52.748Z,27.91
2022-08-22T19:05:08.864Z,27.97
2022-08-22T19:08:10.957Z,28.06
2022-08-22T19:11:13.541Z,27.96
2022-08-22T19:14:20.582Z,27.87
2022-08-22T19:17:38.167Z,27.73
2022-08-22T19:20:48.197Z,27.66
2022-08-22T19:23:41.983Z,27.57
2022-08-22T19:26:30.240Z,27.54
2022-08-22T19:29:01.826Z,27.52
2022-08-22T19:31:50.602Z,27.52
2022-08-22T19:34:29.264Z,27.46
2022-08-22T19:37:32.188Z,27.50
2022-08-22T19:40:11.833Z,27.52
2022-08-22T19:42:41.508Z,27.49
2022-08-22T19:45:26.376Z,27.56
2022-08-22T19:48:00.015Z,27.52
2022-08-22T19:50:34.326Z,27.54
2022-08-22T19:53:37.303Z,27.44
2022-08-22T19:56:30.906Z,27.41
2022-08-22T19:59:21.562Z,27.20
2022-08-22T20:02:07.233Z,27.27
2022-08-22T20:05:18.659Z,27.17
2022-08-22T20:08:38.258Z,27.18
2022-08-22T20:11:37.805Z,27.15
2022-08-22T20:14:30.735Z,27.19
2022-08-22T20:17:24.484Z,27.17
2022-08-22T20:20:17.773Z,27.21
2022-08-22T20:23:20.469Z,27.31
2022-08-22T20:25:52.765Z,27.39
2022-08-22T20:28:48.777Z,27.44
2022-08-22T20:31:26.971Z,27.27
2022-08-22T20:34:08.538Z,27.18
2022-08-22T20:36:36.335Z,27.18
2022-08-22T20:39:12.596Z,27.14
2022-08-22T20:41:42.875Z,27.08
2022-08-22T20:44:31.640Z,27.13
2022-08-22T20:47:12.054Z,26.95
2022-08-22T20:49:44.118Z,27.16
2022-08-22T20:52:34.651Z,27.25
2022-08-22T20:55:15.151Z,27.33
2022-08-22T20:57:51.889Z,27.33
2022-08-22T21:00:43.642Z,27.23
2022-08-22T21:03:37.819Z,27.34
2022-08-22T21:06:18.173Z,27.30
2022-08-22T21:09:07.833Z,27.33
2022-08-22T21:11:40.616Z,27.35
2022-08-22T21:14:27.468Z,27.25
2022-08-22T21:16:54.408Z,27.25
2022-08-22T21:19:27.524Z,27.13
2022-08-22T21:22:17.345Z,27.12
2022-08-22T21:24:45.599Z,27.19
2022-08-22T21:27:33.072Z,27.14
2022-08-22T21:30:04.380Z,27.13
2022-08-22T21:32:40.769Z,27.09
2022-08-22T21:35:23.987Z,27.05
2022-08-22T21:37:51.122Z,27.07
2022-08-22T21:40:32.959Z,27.03
2022-08-22T21:43:13.173Z,26.96
2022-08-22T21:45:41.840Z,26.94
2022-08-22T21:48:33.461Z,26.95
2022-08-22T21:51:44.548Z,26.81
2022-08-22T21:54:29.214Z,26.87
2022-08-22T21:57:00.559Z,26.78
2022-08-22T21:59:50.741Z,26.78
2022-08-22T22:02:28.211Z,26.81
2022-08-22T22:04:55.464Z,26.80
2022-08-22T22:07:24.402Z,26.81
2022-08-22T22:09:54.633Z,26.78
2022-08-22T22:12:23.876Z,26.76
2022-08-22T22:14:51.167Z,26.80
2022-08-22T22:17:19.257Z,26.76
2022-08-22T22:19:50.227Z,26.80
2022-08-22T22:22:17.478Z,26.70
2022-08-22T22:24:44.480Z,26.72
2022-08-22T22:27:16.403Z,26.60
2022-08-22T22:29:44.055Z,26.67
2022-08-22T22:32:10.955Z,26.50
2022-08-22T22:34:39.090Z,26.47
2022-08-22T22:37:08.272Z,26.49
2022-08-22T22:39:36.808Z,26.47
2022-08-22T22:42:05.359Z,26.40
2022-08-22T22:44:32.431Z,26.43
2022-08-22T22:47:02.330Z,26.47
2022-08-22T22:49:31.070Z,26.46
2022-08-22T22:52:01.913Z,26.40
2022-08-22T22:54:30.317Z,26.44
2022-08-22T22:56:58.659Z,26.42
2022-08-22T22:59:25.733Z,26.42
2022-08-22T23:02:04.405Z,26.41
2022-08-22T23:04:33.662Z,26.41
2022-08-22T23:07:01.097Z,26.38
2022-08-22T23:09:38.086Z,26.31
2022-08-22T23:12:06.468Z,26.32
2022-08-22T23:14:34.057Z,26.30
2022-08-22T23:17:02.216Z,26.30
2022-08-22T23:19:29.414Z,26.19
2022-08-22T23:21:59.241Z,26.20
2022-08-22T23:24:30.995Z,26.19
2022-08-22T23:26:58.896Z,26.09
2022-08-22T23:29:26.588Z,26.12
2022-08-22T23:31:59.892Z,26.03
2022-08-22T23:34:41.345Z,26.03
2022-08-22T23:37:08.231Z,25.97
2022-08-22T23:39:35.603Z,25.96
2022-08-22T23:42:02.895Z,25.89
2022-08-22T23:44:34.152Z,25.84
2022-08-22T23:47:02.171Z,25.83
2022-08-22T23:49:30.583Z,25.83
2022-08-22T23:51:57.893Z,25.80
2022-08-22T23:54:25.943Z,25.82
2022-08-22T23:56:57.150Z,25.86
2022-08-22T23:59:33.976Z,25.70
